sensor_id;sensor_type;location;lat;lon;timestamp;P1;durP1;ratioP1;P2;durP2;ratioP2
60014;SDS011;45867;52.480;6.056;2023-01-04T00:00:51;10.35;;;2.80;;
60014;SDS011;45867;52.480;6.056;2023-01-04T00:03:16;9.23;;;3.15;;
60014;SDS011;45867;52.480;6.056;2023-01-04T00:05:42;9.50;;;3.20;;
60014;SDS011;45867;52.480;6.056;2023-01-04T00:08:07;17.73;;;3.47;;
60014;SDS011;45867;52.480;6.056;2023-01-04T00:10:32;8.77;;;3.20;;
60014;SDS011;45867;52.480;6.056;2023-01-04T00:12:58;9.80;;;3.13;;
60014;SDS011;45867;52.480;6.056;2023-01-04T00:15:23;7.55;;;2.88;;
60014;SDS011;45867;52.480;6.056;2023-01-04T00:17:49;9.15;;;3.10;;
60014;SDS011;45867;52.480;6.056;2023-01-04T00:20:14;6.45;;;2.67;;
60014;SDS011;45867;52.480;6.056;2023-01-04T00:22:41;6.22;;;2.28;;
60014;SDS011;45867;52.480;6.056;2023-01-04T00:25:07;7.70;;;3.50;;
60014;SDS011;45867;52.480;6.056;2023-01-04T00:27:33;8.93;;;2.83;;
60014;SDS011;45867;52.480;6.056;2023-01-04T00:29:58;8.05;;;3.22;;
60014;SDS011;45867;52.480;6.056;2023-01-04T00:32:24;8.88;;;2.85;;
60014;SDS011;45867;52.480;6.056;2023-01-04T00:34:49;9.57;;;3.05;;
60014;SDS011;45867;52.480;6.056;2023-01-04T00:37:14;5.53;;;2.72;;
60014;SDS011;45867;52.480;6.056;2023-01-04T00:39:40;9.15;;;2.45;;
60014;SDS011;45867;52.480;6.056;2023-01-04T00:42:05;8.65;;;2.10;;
60014;SDS011;45867;52.480;6.056;2023-01-04T00:44:31;8.15;;;3.08;;
60014;SDS011;45867;52.480;6.056;2023-01-04T00:46:58;9.30;;;2.80;;
60014;SDS011;45867;52.480;6.056;2023-01-04T00:49:25;10.55;;;2.97;;
60014;SDS011;45867;52.480;6.056;2023-01-04T00:51:51;6.63;;;3.08;;
60014;SDS011;45867;52.480;6.056;2023-01-04T00:54:17;8.35;;;3.55;;
60014;SDS011;45867;52.480;6.056;2023-01-04T00:56:43;7.95;;;3.70;;
60014;SDS011;45867;52.480;6.056;2023-01-04T00:59:09;7.30;;;3.13;;
60014;SDS011;45867;52.480;6.056;2023-01-04T01:01:37;6.20;;;2.88;;
60014;SDS011;45867;52.480;6.056;2023-01-04T01:04:04;4.07;;;2.30;;
60014;SDS011;45867;52.480;6.056;2023-01-04T01:06:30;7.28;;;2.75;;
60014;SDS011;45867;52.480;6.056;2023-01-04T01:08:56;6.20;;;2.88;;
60014;SDS011;45867;52.480;6.056;2023-01-04T01:11:22;6.35;;;2.85;;
60014;SDS011;45867;52.480;6.056;2023-01-04T01:13:48;5.38;;;2.58;;
60014;SDS011;45867;52.480;6.056;2023-01-04T01:16:15;8.20;;;2.95;;
60014;SDS011;45867;52.480;6.056;2023-01-04T01:18:43;7.93;;;2.90;;
60014;SDS011;45867;52.480;6.056;2023-01-04T01:21:11;8.13;;;2.97;;
60014;SDS011;45867;52.480;6.056;2023-01-04T01:23:39;5.82;;;2.60;;
60014;SDS011;45867;52.480;6.056;2023-01-04T01:26:06;6.85;;;2.72;;
60014;SDS011;45867;52.480;6.056;2023-01-04T01:28:34;6.15;;;1.98;;
60014;SDS011;45867;52.480;6.056;2023-01-04T01:33:34;8.07;;;2.33;;
60014;SDS011;45867;52.480;6.056;2023-01-04T01:36:01;10.73;;;2.65;;
60014;SDS011;45867;52.480;6.056;2023-01-04T01:38:27;4.97;;;2.20;;
60014;SDS011;45867;52.480;6.056;2023-01-04T01:40:53;6.40;;;2.40;;
60014;SDS011;45867;52.480;6.056;2023-01-04T01:43:19;6.05;;;2.50;;
60014;SDS011;45867;52.480;6.056;2023-01-04T01:45:46;4.75;;;2.17;;
60014;SDS011;45867;52.480;6.056;2023-01-04T01:48:16;4.40;;;1.92;;
60014;SDS011;45867;52.480;6.056;2023-01-04T01:50:52;2.60;;;1.88;;
60014;SDS011;45867;52.480;6.056;2023-01-04T01:53:20;5.28;;;2.08;;
60014;SDS011;45867;52.480;6.056;2023-01-04T01:55:46;7.07;;;2.30;;
60014;SDS011;45867;52.480;6.056;2023-01-04T01:58:28;2.53;;;1.55;;
60014;SDS011;45867;52.480;6.056;2023-01-04T02:00:57;4.35;;;1.80;;
60014;SDS011;45867;52.480;6.056;2023-01-04T02:03:26;2.55;;;1.75;;
60014;SDS011;45867;52.480;6.056;2023-01-04T02:05:56;4.22;;;1.95;;
60014;SDS011;45867;52.480;6.056;2023-01-04T02:08:25;4.55;;;2.10;;
60014;SDS011;45867;52.480;6.056;2023-01-04T02:10:51;4.35;;;2.00;;
60014;SDS011;45867;52.480;6.056;2023-01-04T02:13:17;4.28;;;2.10;;
60014;SDS011;45867;52.480;6.056;2023-01-04T02:16:37;2.78;;;1.90;;
60014;SDS011;45867;52.480;6.056;2023-01-04T02:33:06;1.70;;;1.45;;
60014;SDS011;45867;52.480;6.056;2023-01-04T02:39:16;1.67;;;1.25;;
60014;SDS011;45867;52.480;6.056;2023-01-04T02:41:30;5.65;;;2.25;;
60014;SDS011;45867;52.480;6.056;2023-01-04T02:44:34;2.72;;;1.88;;
60014;SDS011;45867;52.480;6.056;2023-01-04T02:47:22;2.33;;;1.60;;
60014;SDS011;45867;52.480;6.056;2023-01-04T02:50:52;4.28;;;1.70;;
60014;SDS011;45867;52.480;6.056;2023-01-04T02:53:07;2.67;;;1.75;;
60014;SDS011;45867;52.480;6.056;2023-01-04T03:01:53;3.53;;;1.90;;
60014;SDS011;45867;52.480;6.056;2023-01-04T03:05:15;3.53;;;2.45;;
60014;SDS011;45867;52.480;6.056;2023-01-04T03:08:25;3.28;;;1.88;;
60014;SDS011;45867;52.480;6.056;2023-01-04T03:10:58;3.25;;;1.70;;
60014;SDS011;45867;52.480;6.056;2023-01-04T03:13:38;4.88;;;2.00;;
60014;SDS011;45867;52.480;6.056;2023-01-04T03:16:17;2.58;;;1.83;;
60014;SDS011;45867;52.480;6.056;2023-01-04T03:18:47;6.22;;;2.65;;
60014;SDS011;45867;52.480;6.056;2023-01-04T03:21:16;2.95;;;1.90;;
60014;SDS011;45867;52.480;6.056;2023-01-04T03:23:45;2.67;;;1.85;;
60014;SDS011;45867;52.480;6.056;2023-01-04T03:26:32;5.10;;;2.40;;
60014;SDS011;45867;52.480;6.056;2023-01-04T03:32:06;4.82;;;2.60;;
60014;SDS011;45867;52.480;6.056;2023-01-04T03:34:54;6.53;;;2.13;;
60014;SDS011;45867;52.480;6.056;2023-01-04T03:37:49;3.85;;;1.67;;
60014;SDS011;45867;52.480;6.056;2023-01-04T03:40:39;3.10;;;2.38;;
60014;SDS011;45867;52.480;6.056;2023-01-04T03:43:30;4.32;;;2.67;;
60014;SDS011;45867;52.480;6.056;2023-01-04T03:46:29;5.43;;;3.00;;
60014;SDS011;45867;52.480;6.056;2023-01-04T03:52:03;4.30;;;3.03;;
60014;SDS011;45867;52.480;6.056;2023-01-04T03:54:41;5.18;;;2.50;;
60014;SDS011;45867;52.480;6.056;2023-01-04T03:57:15;4.07;;;2.72;;
60014;SDS011;45867;52.480;6.056;2023-01-04T03:59:43;3.20;;;2.72;;
60014;SDS011;45867;52.480;6.056;2023-01-04T04:02:12;4.75;;;3.53;;
60014;SDS011;45867;52.480;6.056;2023-01-04T04:04:41;5.18;;;2.88;;
60014;SDS011;45867;52.480;6.056;2023-01-04T04:07:26;4.47;;;3.25;;
60014;SDS011;45867;52.480;6.056;2023-01-04T04:10:10;4.72;;;3.50;;
60014;SDS011;45867;52.480;6.056;2023-01-04T04:12:36;4.82;;;3.88;;
60014;SDS011;45867;52.480;6.056;2023-01-04T04:15:01;3.63;;;2.92;;
60014;SDS011;45867;52.480;6.056;2023-01-04T04:17:27;4.03;;;3.15;;
60014;SDS011;45867;52.480;6.056;2023-01-04T04:19:52;4.82;;;3.50;;
60014;SDS011;45867;52.480;6.056;2023-01-04T04:22:17;4.13;;;3.33;;
60014;SDS011;45867;52.480;6.056;2023-01-04T04:24:43;5.00;;;3.78;;
60014;SDS011;45867;52.480;6.056;2023-01-04T04:27:08;5.20;;;3.55;;
60014;SDS011;45867;52.480;6.056;2023-01-04T04:29:33;8.23;;;3.85;;
60014;SDS011;45867;52.480;6.056;2023-01-04T04:31:59;7.43;;;3.85;;
60014;SDS011;45867;52.480;6.056;2023-01-04T04:34:24;4.93;;;3.80;;
60014;SDS011;45867;52.480;6.056;2023-01-04T04:36:50;5.90;;;4.00;;
60014;SDS011;45867;52.480;6.056;2023-01-04T04:39:15;7.10;;;4.57;;
60014;SDS011;45867;52.480;6.056;2023-01-04T04:41:41;5.28;;;4.03;;
60014;SDS011;45867;52.480;6.056;2023-01-04T04:46:37;6.88;;;4.35;;
60014;SDS011;45867;52.480;6.056;2023-01-04T04:49:03;5.97;;;4.43;;
60014;SDS011;45867;52.480;6.056;2023-01-04T04:51:29;8.13;;;5.38;;
60014;SDS011;45867;52.480;6.056;2023-01-04T04:53:54;7.53;;;4.78;;
60014;SDS011;45867;52.480;6.056;2023-01-04T04:56:20;9.00;;;5.28;;
60014;SDS011;45867;52.480;6.056;2023-01-04T04:58:46;5.47;;;3.75;;
60014;SDS011;45867;52.480;6.056;2023-01-04T05:01:12;7.47;;;4.38;;
60014;SDS011;45867;52.480;6.056;2023-01-04T05:03:37;6.15;;;5.03;;
60014;SDS011;45867;52.480;6.056;2023-01-04T05:06:03;6.57;;;4.22;;
60014;SDS011;45867;52.480;6.056;2023-01-04T05:08:28;5.72;;;4.03;;
60014;SDS011;45867;52.480;6.056;2023-01-04T05:10:54;5.38;;;4.25;;
60014;SDS011;45867;52.480;6.056;2023-01-04T05:13:19;7.07;;;5.15;;
60014;SDS011;45867;52.480;6.056;2023-01-04T05:15:46;5.88;;;4.25;;
60014;SDS011;45867;52.480;6.056;2023-01-04T05:18:14;4.93;;;3.33;;
60014;SDS011;45867;52.480;6.056;2023-01-04T05:20:42;4.95;;;3.10;;
60014;SDS011;45867;52.480;6.056;2023-01-04T05:23:09;6.60;;;3.83;;
60014;SDS011;45867;52.480;6.056;2023-01-04T05:25:37;6.95;;;4.78;;
60014;SDS011;45867;52.480;6.056;2023-01-04T05:28:02;5.35;;;3.72;;
60014;SDS011;45867;52.480;6.056;2023-01-04T05:30:28;6.80;;;3.47;;
60014;SDS011;45867;52.480;6.056;2023-01-04T05:33:12;8.55;;;3.33;;
60014;SDS011;45867;52.480;6.056;2023-01-04T05:35:37;6.72;;;3.35;;
60014;SDS011;45867;52.480;6.056;2023-01-04T05:38:03;5.82;;;3.58;;
60014;SDS011;45867;52.480;6.056;2023-01-04T05:40:29;5.20;;;3.95;;
60014;SDS011;45867;52.480;6.056;2023-01-04T05:42:54;11.65;;;4.63;;
60014;SDS011;45867;52.480;6.056;2023-01-04T05:45:20;8.10;;;4.38;;
60014;SDS011;45867;52.480;6.056;2023-01-04T05:47:49;4.63;;;3.75;;
60014;SDS011;45867;52.480;6.056;2023-01-04T05:50:16;5.57;;;3.25;;
60014;SDS011;45867;52.480;6.056;2023-01-04T05:52:42;3.67;;;2.80;;
60014;SDS011;45867;52.480;6.056;2023-01-04T05:55:08;7.07;;;3.35;;
60014;SDS011;45867;52.480;6.056;2023-01-04T05:57:35;5.68;;;3.00;;
60014;SDS011;45867;52.480;6.056;2023-01-04T06:00:00;5.80;;;3.00;;
60014;SDS011;45867;52.480;6.056;2023-01-04T06:02:27;3.53;;;2.63;;
60014;SDS011;45867;52.480;6.056;2023-01-04T06:04:54;2.50;;;2.08;;
60014;SDS011;45867;52.480;6.056;2023-01-04T06:07:19;4.47;;;2.28;;
60014;SDS011;45867;52.480;6.056;2023-01-04T06:09:45;4.80;;;2.60;;
60014;SDS011;45867;52.480;6.056;2023-01-04T06:12:10;4.03;;;2.70;;
60014;SDS011;45867;52.480;6.056;2023-01-04T06:14:36;4.63;;;2.55;;
60014;SDS011;45867;52.480;6.056;2023-01-04T06:17:01;3.20;;;2.25;;
60014;SDS011;45867;52.480;6.056;2023-01-04T06:19:27;4.45;;;2.33;;
60014;SDS011;45867;52.480;6.056;2023-01-04T06:21:52;5.68;;;2.65;;
60014;SDS011;45867;52.480;6.056;2023-01-04T06:24:18;4.45;;;2.90;;
60014;SDS011;45867;52.480;6.056;2023-01-04T06:26:43;5.18;;;2.42;;
60014;SDS011;45867;52.480;6.056;2023-01-04T06:29:09;3.45;;;2.45;;
60014;SDS011;45867;52.480;6.056;2023-01-04T06:31:35;3.20;;;2.25;;
60014;SDS011;45867;52.480;6.056;2023-01-04T06:34:00;3.03;;;2.03;;
60014;SDS011;45867;52.480;6.056;2023-01-04T06:36:26;1.98;;;1.73;;
60014;SDS011;45867;52.480;6.056;2023-01-04T06:38:52;3.70;;;2.47;;
60014;SDS011;45867;52.480;6.056;2023-01-04T06:41:18;2.55;;;2.22;;
60014;SDS011;45867;52.480;6.056;2023-01-04T06:43:43;3.78;;;2.38;;
60014;SDS011;45867;52.480;6.056;2023-01-04T06:46:09;2.65;;;2.13;;
60014;SDS011;45867;52.480;6.056;2023-01-04T06:48:34;4.50;;;2.33;;
60014;SDS011;45867;52.480;6.056;2023-01-04T06:51:00;4.22;;;2.00;;
60014;SDS011;45867;52.480;6.056;2023-01-04T06:53:25;4.22;;;2.45;;
60014;SDS011;45867;52.480;6.056;2023-01-04T06:55:50;5.68;;;2.38;;
60014;SDS011;45867;52.480;6.056;2023-01-04T06:58:22;2.75;;;2.13;;
60014;SDS011;45867;52.480;6.056;2023-01-04T07:00:49;7.40;;;2.95;;
60014;SDS011;45867;52.480;6.056;2023-01-04T07:03:15;3.33;;;2.38;;
60014;SDS011;45867;52.480;6.056;2023-01-04T07:05:41;4.90;;;2.63;;
60014;SDS011;45867;52.480;6.056;2023-01-04T07:08:06;5.05;;;3.30;;
60014;SDS011;45867;52.480;6.056;2023-01-04T07:10:32;3.20;;;2.38;;
60014;SDS011;45867;52.480;6.056;2023-01-04T07:12:57;6.20;;;2.97;;
60014;SDS011;45867;52.480;6.056;2023-01-04T07:15:23;4.72;;;2.70;;
60014;SDS011;45867;52.480;6.056;2023-01-04T07:17:48;4.65;;;2.58;;
60014;SDS011;45867;52.480;6.056;2023-01-04T07:20:15;3.35;;;2.60;;
60014;SDS011;45867;52.480;6.056;2023-01-04T07:22:41;4.28;;;2.72;;
60014;SDS011;45867;52.480;6.056;2023-01-04T07:25:06;3.97;;;2.38;;
60014;SDS011;45867;52.480;6.056;2023-01-04T07:27:32;3.75;;;2.60;;
60014;SDS011;45867;52.480;6.056;2023-01-04T07:30:01;3.13;;;2.17;;
60014;SDS011;45867;52.480;6.056;2023-01-04T07:32:26;3.67;;;2.58;;
60014;SDS011;45867;52.480;6.056;2023-01-04T07:34:52;3.95;;;2.53;;
60014;SDS011;45867;52.480;6.056;2023-01-04T07:37:17;5.82;;;3.03;;
60014;SDS011;45867;52.480;6.056;2023-01-04T07:39:43;6.13;;;3.00;;
60014;SDS011;45867;52.480;6.056;2023-01-04T07:42:11;6.88;;;2.85;;
60014;SDS011;45867;52.480;6.056;2023-01-04T07:44:36;5.15;;;2.50;;
60014;SDS011;45867;52.480;6.056;2023-01-04T07:47:02;4.57;;;2.97;;
60014;SDS011;45867;52.480;6.056;2023-01-04T07:49:28;5.45;;;2.58;;
60014;SDS011;45867;52.480;6.056;2023-01-04T07:51:53;6.07;;;2.67;;
60014;SDS011;45867;52.480;6.056;2023-01-04T07:54:19;4.63;;;2.85;;
60014;SDS011;45867;52.480;6.056;2023-01-04T07:56:45;5.25;;;3.25;;
60014;SDS011;45867;52.480;6.056;2023-01-04T07:59:12;3.80;;;2.50;;
60014;SDS011;45867;52.480;6.056;2023-01-04T08:01:39;7.25;;;3.08;;
60014;SDS011;45867;52.480;6.056;2023-01-04T08:04:06;5.07;;;2.90;;
60014;SDS011;45867;52.480;6.056;2023-01-04T08:06:33;9.27;;;3.10;;
60014;SDS011;45867;52.480;6.056;2023-01-04T08:08:59;6.15;;;3.03;;
60014;SDS011;45867;52.480;6.056;2023-01-04T08:11:25;7.63;;;3.47;;
60014;SDS011;45867;52.480;6.056;2023-01-04T08:13:51;4.57;;;2.40;;
60014;SDS011;45867;52.480;6.056;2023-01-04T08:16:18;7.78;;;3.30;;
60014;SDS011;45867;52.480;6.056;2023-01-04T08:18:43;4.18;;;2.53;;
60014;SDS011;45867;52.480;6.056;2023-01-04T08:21:09;3.08;;;2.15;;
60014;SDS011;45867;52.480;6.056;2023-01-04T08:23:34;4.97;;;2.90;;
60014;SDS011;45867;52.480;6.056;2023-01-04T08:26:05;4.70;;;2.47;;
60014;SDS011;45867;52.480;6.056;2023-01-04T08:28:33;5.00;;;2.65;;
60014;SDS011;45867;52.480;6.056;2023-01-04T08:31:02;3.60;;;2.22;;
60014;SDS011;45867;52.480;6.056;2023-01-04T08:33:29;3.35;;;2.03;;
60014;SDS011;45867;52.480;6.056;2023-01-04T08:36:04;4.90;;;2.40;;
60014;SDS011;45867;52.480;6.056;2023-01-04T08:38:31;6.40;;;2.22;;
60014;SDS011;45867;52.480;6.056;2023-01-04T08:40:56;5.43;;;2.13;;
60014;SDS011;45867;52.480;6.056;2023-01-04T08:43:21;4.70;;;2.20;;
60014;SDS011;45867;52.480;6.056;2023-01-04T08:45:47;7.05;;;2.72;;
60014;SDS011;45867;52.480;6.056;2023-01-04T08:48:12;6.50;;;2.20;;
60014;SDS011;45867;52.480;6.056;2023-01-04T08:50:37;4.55;;;1.77;;
60014;SDS011;45867;52.480;6.056;2023-01-04T08:53:03;7.65;;;1.80;;
60014;SDS011;45867;52.480;6.056;2023-01-04T08:55:28;3.10;;;1.60;;
60014;SDS011;45867;52.480;6.056;2023-01-04T08:57:54;4.45;;;1.88;;
60014;SDS011;45867;52.480;6.056;2023-01-04T09:00:19;2.47;;;1.30;;
60014;SDS011;45867;52.480;6.056;2023-01-04T09:02:45;1.98;;;1.13;;
60014;SDS011;45867;52.480;6.056;2023-01-04T09:05:11;1.55;;;1.08;;
60014;SDS011;45867;52.480;6.056;2023-01-04T09:07:36;3.90;;;1.50;;
60014;SDS011;45867;52.480;6.056;2023-01-04T09:10:02;2.15;;;1.63;;
60014;SDS011;45867;52.480;6.056;2023-01-04T09:12:27;2.53;;;1.55;;
60014;SDS011;45867;52.480;6.056;2023-01-04T09:14:52;2.42;;;1.80;;
60014;SDS011;45867;52.480;6.056;2023-01-04T09:17:18;3.95;;;1.58;;
60014;SDS011;45867;52.480;6.056;2023-01-04T09:19:43;1.00;;;0.90;;
60014;SDS011;45867;52.480;6.056;2023-01-04T09:22:09;3.22;;;1.05;;
60014;SDS011;45867;52.480;6.056;2023-01-04T09:24:34;3.38;;;1.45;;
60014;SDS011;45867;52.480;6.056;2023-01-04T09:27:00;1.50;;;1.20;;
60014;SDS011;45867;52.480;6.056;2023-01-04T09:29:25;0.90;;;0.80;;
60014;SDS011;45867;52.480;6.056;2023-01-04T09:31:52;2.25;;;1.40;;
60014;SDS011;45867;52.480;6.056;2023-01-04T09:34:18;4.90;;;1.23;;
60014;SDS011;45867;52.480;6.056;2023-01-04T09:36:44;1.35;;;1.15;;
60014;SDS011;45867;52.480;6.056;2023-01-04T09:39:11;1.50;;;1.30;;
60014;SDS011;45867;52.480;6.056;2023-01-04T09:41:56;1.15;;;0.60;;
60014;SDS011;45867;52.480;6.056;2023-01-04T09:44:31;1.15;;;1.05;;
60014;SDS011;45867;52.480;6.056;2023-01-04T09:47:04;1.17;;;0.75;;
60014;SDS011;45867;52.480;6.056;2023-01-04T09:49:37;1.55;;;0.60;;
60014;SDS011;45867;52.480;6.056;2023-01-04T09:54:44;1.95;;;0.85;;
60014;SDS011;45867;52.480;6.056;2023-01-04T09:57:32;1.48;;;0.73;;
60014;SDS011;45867;52.480;6.056;2023-01-04T10:00:05;3.25;;;0.98;;
60014;SDS011;45867;52.480;6.056;2023-01-04T10:02:45;1.13;;;0.90;;
60014;SDS011;45867;52.480;6.056;2023-01-04T10:05:20;1.13;;;1.02;;
60014;SDS011;45867;52.480;6.056;2023-01-04T10:07:47;0.93;;;0.82;;
60014;SDS011;45867;52.480;6.056;2023-01-04T10:10:14;0.73;;;0.73;;
60014;SDS011;45867;52.480;6.056;2023-01-04T10:15:52;1.98;;;1.20;;
60014;SDS011;45867;52.480;6.056;2023-01-04T10:18:36;1.70;;;1.00;;
60014;SDS011;45867;52.480;6.056;2023-01-04T10:26:41;2.38;;;0.93;;
60014;SDS011;45867;52.480;6.056;2023-01-04T10:29:29;1.10;;;0.90;;
60014;SDS011;45867;52.480;6.056;2023-01-04T10:34:46;2.00;;;1.25;;
60014;SDS011;45867;52.480;6.056;2023-01-04T10:37:28;1.58;;;1.20;;
60014;SDS011;45867;52.480;6.056;2023-01-04T10:39:59;4.35;;;1.70;;
60014;SDS011;45867;52.480;6.056;2023-01-04T10:45:20;5.25;;;1.83;;
60014;SDS011;45867;52.480;6.056;2023-01-04T10:48:14;3.95;;;2.03;;
60014;SDS011;45867;52.480;6.056;2023-01-04T10:50:53;5.25;;;2.10;;
60014;SDS011;45867;52.480;6.056;2023-01-04T11:01:43;3.50;;;2.15;;
60014;SDS011;45867;52.480;6.056;2023-01-04T11:12:50;6.03;;;2.33;;
60014;SDS011;45867;52.480;6.056;2023-01-04T11:15:16;4.22;;;2.40;;
60014;SDS011;45867;52.480;6.056;2023-01-04T11:17:41;8.68;;;2.80;;
60014;SDS011;45867;52.480;6.056;2023-01-04T11:20:08;8.98;;;3.10;;
60014;SDS011;45867;52.480;6.056;2023-01-04T11:22:45;8.48;;;2.42;;
60014;SDS011;45867;52.480;6.056;2023-01-04T11:25:18;9.63;;;3.13;;
60014;SDS011;45867;52.480;6.056;2023-01-04T11:27:59;13.27;;;2.80;;
60014;SDS011;45867;52.480;6.056;2023-01-04T11:33:15;13.25;;;2.85;;
60014;SDS011;45867;52.480;6.056;2023-01-04T11:35:48;14.95;;;2.53;;
60014;SDS011;45867;52.480;6.056;2023-01-04T11:38:20;8.50;;;2.30;;
60014;SDS011;45867;52.480;6.056;2023-01-04T11:40:57;6.15;;;1.95;;
60014;SDS011;45867;52.480;6.056;2023-01-04T11:43:26;7.80;;;2.67;;
60014;SDS011;45867;52.480;6.056;2023-01-04T11:46:00;4.78;;;2.08;;
60014;SDS011;45867;52.480;6.056;2023-01-04T11:48:31;4.85;;;2.28;;
60014;SDS011;45867;52.480;6.056;2023-01-04T11:50:56;4.68;;;2.10;;
60014;SDS011;45867;52.480;6.056;2023-01-04T11:53:26;6.35;;;2.00;;
60014;SDS011;45867;52.480;6.056;2023-01-04T11:56:10;9.50;;;1.98;;
60014;SDS011;45867;52.480;6.056;2023-01-04T11:58:38;3.60;;;1.65;;
60014;SDS011;45867;52.480;6.056;2023-01-04T12:01:05;4.38;;;2.38;;
60014;SDS011;45867;52.480;6.056;2023-01-04T12:03:34;5.97;;;2.35;;
60014;SDS011;45867;52.480;6.056;2023-01-04T12:06:04;6.88;;;2.58;;
60014;SDS011;45867;52.480;6.056;2023-01-04T12:08:37;5.05;;;2.38;;
60014;SDS011;45867;52.480;6.056;2023-01-04T12:11:03;8.50;;;2.38;;
60014;SDS011;45867;52.480;6.056;2023-01-04T12:13:30;12.77;;;2.90;;
60014;SDS011;45867;52.480;6.056;2023-01-04T12:16:07;7.78;;;2.78;;
60014;SDS011;45867;52.480;6.056;2023-01-04T12:18:45;5.40;;;2.20;;
60014;SDS011;45867;52.480;6.056;2023-01-04T12:21:18;7.72;;;2.65;;
60014;SDS011;45867;52.480;6.056;2023-01-04T12:23:51;11.60;;;2.90;;
60014;SDS011;45867;52.480;6.056;2023-01-04T12:26:18;8.30;;;2.60;;
60014;SDS011;45867;52.480;6.056;2023-01-04T12:28:51;10.10;;;3.58;;
60014;SDS011;45867;52.480;6.056;2023-01-04T12:31:48;10.85;;;2.83;;
60014;SDS011;45867;52.480;6.056;2023-01-04T12:47:01;14.43;;;2.92;;
60014;SDS011;45867;52.480;6.056;2023-01-04T12:54:47;16.27;;;3.20;;
60014;SDS011;45867;52.480;6.056;2023-01-04T12:59:59;15.13;;;2.88;;
60014;SDS011;45867;52.480;6.056;2023-01-04T13:13:07;13.18;;;2.88;;
60014;SDS011;45867;52.480;6.056;2023-01-04T13:21:19;10.35;;;2.55;;
60014;SDS011;45867;52.480;6.056;2023-01-04T13:23:57;10.20;;;2.63;;
60014;SDS011;45867;52.480;6.056;2023-01-04T13:26:38;10.73;;;2.63;;
60014;SDS011;45867;52.480;6.056;2023-01-04T13:29:18;12.57;;;3.10;;
60014;SDS011;45867;52.480;6.056;2023-01-04T13:34:50;15.88;;;3.72;;
60014;SDS011;45867;52.480;6.056;2023-01-04T13:37:29;19.67;;;2.90;;
60014;SDS011;45867;52.480;6.056;2023-01-04T13:42:48;15.18;;;2.63;;
60014;SDS011;45867;52.480;6.056;2023-01-04T13:48:00;16.20;;;3.78;;
60014;SDS011;45867;52.480;6.056;2023-01-04T13:50:38;22.58;;;4.20;;
60014;SDS011;45867;52.480;6.056;2023-01-04T13:53:18;16.05;;;2.65;;
60014;SDS011;45867;52.480;6.056;2023-01-04T13:55:48;11.40;;;2.75;;
60014;SDS011;45867;52.480;6.056;2023-01-04T13:58:15;15.55;;;2.75;;
60014;SDS011;45867;52.480;6.056;2023-01-04T14:00:53;19.13;;;3.55;;
60014;SDS011;45867;52.480;6.056;2023-01-04T14:03:29;12.07;;;2.63;;
60014;SDS011;45867;52.480;6.056;2023-01-04T14:06:00;13.00;;;2.78;;
60014;SDS011;45867;52.480;6.056;2023-01-04T14:09:23;12.32;;;2.95;;
60014;SDS011;45867;52.480;6.056;2023-01-04T14:14:30;16.05;;;2.72;;
60014;SDS011;45867;52.480;6.056;2023-01-04T14:17:11;13.10;;;3.08;;
60014;SDS011;45867;52.480;6.056;2023-01-04T14:19:41;15.27;;;2.80;;
60014;SDS011;45867;52.480;6.056;2023-01-04T14:24:45;10.20;;;2.80;;
60014;SDS011;45867;52.480;6.056;2023-01-04T14:32:59;18.98;;;3.35;;
60014;SDS011;45867;52.480;6.056;2023-01-04T14:35:27;20.08;;;3.60;;
60014;SDS011;45867;52.480;6.056;2023-01-04T14:37:54;20.15;;;3.72;;
60014;SDS011;45867;52.480;6.056;2023-01-04T14:40:27;14.93;;;3.00;;
60014;SDS011;45867;52.480;6.056;2023-01-04T14:42:56;21.30;;;3.58;;
60014;SDS011;45867;52.480;6.056;2023-01-04T14:45:22;21.02;;;3.85;;
60014;SDS011;45867;52.480;6.056;2023-01-04T14:47:47;17.10;;;4.15;;
60014;SDS011;45867;52.480;6.056;2023-01-04T14:50:13;24.40;;;5.68;;
60014;SDS011;45867;52.480;6.056;2023-01-04T14:52:48;25.98;;;4.90;;
60014;SDS011;45867;52.480;6.056;2023-01-04T14:55:17;13.55;;;2.65;;
60014;SDS011;45867;52.480;6.056;2023-01-04T14:57:45;16.27;;;3.70;;
60014;SDS011;45867;52.480;6.056;2023-01-04T15:00:14;14.50;;;2.95;;
60014;SDS011;45867;52.480;6.056;2023-01-04T15:02:40;15.43;;;2.78;;
60014;SDS011;45867;52.480;6.056;2023-01-04T15:05:06;11.48;;;3.17;;
60014;SDS011;45867;52.480;6.056;2023-01-04T15:07:36;17.50;;;3.92;;
60014;SDS011;45867;52.480;6.056;2023-01-04T15:10:05;19.40;;;3.40;;
60014;SDS011;45867;52.480;6.056;2023-01-04T15:12:32;14.15;;;2.85;;
60014;SDS011;45867;52.480;6.056;2023-01-04T15:14:58;15.48;;;3.20;;
60014;SDS011;45867;52.480;6.056;2023-01-04T15:17:23;18.83;;;4.15;;
60014;SDS011;45867;52.480;6.056;2023-01-04T15:19:48;18.33;;;3.72;;
60014;SDS011;45867;52.480;6.056;2023-01-04T15:22:14;16.70;;;3.20;;
60014;SDS011;45867;52.480;6.056;2023-01-04T15:24:39;11.43;;;3.55;;
60014;SDS011;45867;52.480;6.056;2023-01-04T15:27:05;14.40;;;3.45;;
60014;SDS011;45867;52.480;6.056;2023-01-04T15:29:30;11.57;;;2.92;;
60014;SDS011;45867;52.480;6.056;2023-01-04T15:31:55;15.05;;;3.15;;
60014;SDS011;45867;52.480;6.056;2023-01-04T15:34:21;18.20;;;3.33;;
60014;SDS011;45867;52.480;6.056;2023-01-04T15:36:49;14.25;;;3.75;;
60014;SDS011;45867;52.480;6.056;2023-01-04T15:39:15;20.05;;;3.70;;
60014;SDS011;45867;52.480;6.056;2023-01-04T15:41:41;15.95;;;3.97;;
60014;SDS011;45867;52.480;6.056;2023-01-04T15:44:25;13.90;;;3.45;;
60014;SDS011;45867;52.480;6.056;2023-01-04T15:46:51;17.17;;;3.67;;
60014;SDS011;45867;52.480;6.056;2023-01-04T15:49:17;20.17;;;3.63;;
60014;SDS011;45867;52.480;6.056;2023-01-04T15:51:43;17.00;;;3.85;;
60014;SDS011;45867;52.480;6.056;2023-01-04T15:54:09;21.08;;;3.33;;
60014;SDS011;45867;52.480;6.056;2023-01-04T15:56:34;12.15;;;3.08;;
60014;SDS011;45867;52.480;6.056;2023-01-04T15:58:59;16.55;;;3.63;;
60014;SDS011;45867;52.480;6.056;2023-01-04T16:01:25;17.20;;;3.47;;
60014;SDS011;45867;52.480;6.056;2023-01-04T16:03:50;14.25;;;3.30;;
60014;SDS011;45867;52.480;6.056;2023-01-04T16:06:16;20.33;;;3.50;;
60014;SDS011;45867;52.480;6.056;2023-01-04T16:08:42;19.50;;;3.42;;
60014;SDS011;45867;52.480;6.056;2023-01-04T16:11:41;15.73;;;3.80;;
60014;SDS011;45867;52.480;6.056;2023-01-04T16:13:59;13.63;;;2.72;;
60014;SDS011;45867;52.480;6.056;2023-01-04T16:16:26;17.15;;;3.22;;
60014;SDS011;45867;52.480;6.056;2023-01-04T16:18:53;21.83;;;3.60;;
60014;SDS011;45867;52.480;6.056;2023-01-04T16:21:26;20.00;;;2.88;;
60014;SDS011;45867;52.480;6.056;2023-01-04T16:23:53;17.58;;;3.97;;
60014;SDS011;45867;52.480;6.056;2023-01-04T16:26:22;16.40;;;3.95;;
60014;SDS011;45867;52.480;6.056;2023-01-04T16:28:51;25.40;;;3.53;;
60014;SDS011;45867;52.480;6.056;2023-01-04T16:31:18;28.08;;;3.80;;
60014;SDS011;45867;52.480;6.056;2023-01-04T16:33:45;18.00;;;3.47;;
60014;SDS011;45867;52.480;6.056;2023-01-04T16:36:12;12.73;;;3.38;;
60014;SDS011;45867;52.480;6.056;2023-01-04T16:38:40;25.58;;;3.45;;
60014;SDS011;45867;52.480;6.056;2023-01-04T16:41:09;24.13;;;3.90;;
60014;SDS011;45867;52.480;6.056;2023-01-04T16:43:43;14.07;;;3.22;;
60014;SDS011;45867;52.480;6.056;2023-01-04T16:48:53;18.30;;;3.67;;
60014;SDS011;45867;52.480;6.056;2023-01-04T16:51:20;18.25;;;3.75;;
60014;SDS011;45867;52.480;6.056;2023-01-04T16:53:46;22.10;;;4.32;;
60014;SDS011;45867;52.480;6.056;2023-01-04T16:56:12;15.63;;;3.40;;
60014;SDS011;45867;52.480;6.056;2023-01-04T16:58:40;21.35;;;3.60;;
60014;SDS011;45867;52.480;6.056;2023-01-04T17:01:13;27.73;;;4.43;;
60014;SDS011;45867;52.480;6.056;2023-01-04T17:03:50;22.10;;;3.75;;
60014;SDS011;45867;52.480;6.056;2023-01-04T17:06:20;22.15;;;3.35;;
60014;SDS011;45867;52.480;6.056;2023-01-04T17:08:48;21.27;;;3.55;;